createdAt,value
2023-04-27T04:00:29.907Z,1000.16
2023-04-27T04:05:29.873Z,1000.16
2023-04-27T04:10:29.785Z,1000.23
2023-04-27T04:15:36.823Z,1000.30
2023-04-27T04:20:29.682Z,1000.29
2023-04-27T04:25:29.789Z,1000.31
2023-04-27T04:30:29.559Z,1000.34
2023-04-27T04:35:29.535Z,1000.33
2023-04-27T04:40:29.466Z,1000.40
2023-04-27T04:45:29.419Z,1000.42
2023-04-27T04:50:29.345Z,1000.46
2023-04-27T04:55:29.678Z,1000.51
2023-04-27T05:00:29.235Z,1000.41
2023-04-27T05:05:29.199Z,1000.45
2023-04-27T05:10:29.179Z,1000.39
2023-04-27T05:15:29.128Z,1000.49
2023-04-27T05:20:29.065Z,1000.56
2023-04-27T05:25:28.985Z,1000.59
2023-04-27T05:30:28.928Z,1000.66
2023-04-27T05:35:28.921Z,1000.68
2023-04-27T05:40:28.840Z,1000.76
2023-04-27T05:45:28.787Z,1000.73
2023-04-27T05:50:28.716Z,1000.72
2023-04-27T05:55:28.737Z,1000.80
2023-04-27T06:00:28.589Z,1000.86
2023-04-27T06:05:28.628Z,1000.77
2023-04-27T06:10:28.575Z,1000.93
2023-04-27T06:15:28.488Z,1000.92
2023-04-27T06:20:28.411Z,1000.94
2023-04-27T06:25:28.338Z,1000.94
2023-04-27T06:30:28.308Z,1000.99
2023-04-27T06:35:28.245Z,1000.83
2023-04-27T06:40:28.234Z,1000.96
2023-04-27T06:45:28.110Z,1000.88
2023-04-27T06:50:28.151Z,1000.90
2023-04-27T06:55:28.030Z,1000.97
2023-04-27T07:00:27.957Z,1000.90
2023-04-27T07:05:27.884Z,1000.83
2023-04-27T07:10:27.832Z,1000.94
2023-04-27T07:15:27.812Z,1000.88
2023-04-27T07:20:27.744Z,1000.91
2023-04-27T07:25:27.666Z,1000.93
2023-04-27T07:30:27.623Z,1000.92
2023-04-27T07:35:27.582Z,1000.85
2023-04-27T07:40:27.531Z,1000.88
2023-04-27T07:45:27.493Z,1000.95
2023-04-27T07:50:27.423Z,1000.83
2023-04-27T07:55:27.375Z,1000.91
2023-04-27T08:00:27.296Z,1000.80
2023-04-27T08:05:27.477Z,1000.76
2023-04-27T08:10:27.171Z,1000.83
2023-04-27T08:15:27.150Z,1000.81
2023-04-27T08:20:27.059Z,1000.76
2023-04-27T08:25:26.998Z,1000.67
2023-04-27T08:30:26.946Z,1000.64
2023-04-27T08:35:26.914Z,1000.49
2023-04-27T08:40:26.890Z,1000.55
2023-04-27T08:45:26.815Z,1000.49
2023-04-27T08:50:26.753Z,1000.49
2023-04-27T08:55:26.715Z,1000.52
2023-04-27T09:00:26.739Z,1000.43
2023-04-27T09:05:26.621Z,1000.52
2023-04-27T09:10:26.509Z,1000.54
2023-04-27T09:15:26.493Z,1000.50
2023-04-27T09:20:26.430Z,1000.48
2023-04-27T09:25:26.375Z,1000.35
2023-04-27T09:30:26.346Z,1000.41
2023-04-27T09:35:26.273Z,1000.34
2023-04-27T09:40:26.202Z,1000.36
2023-04-27T09:45:26.242Z,1000.23
2023-04-27T09:50:26.117Z,1000.24
2023-04-27T09:55:26.325Z,1000.32
2023-04-27T10:00:25.993Z,1000.16
2023-04-27T10:05:26.017Z,1000.17
2023-04-27T10:10:25.894Z,1000.10
2023-04-27T10:15:25.834Z,1000.14
2023-04-27T10:20:32.821Z,999.99
2023-04-27T10:25:25.710Z,999.96
2023-04-27T10:30:25.668Z,1000.03
2023-04-27T10:35:25.622Z,999.91
2023-04-27T10:40:25.586Z,999.82
2023-04-27T10:45:25.498Z,999.84
2023-04-27T10:50:25.459Z,999.74
2023-04-27T10:55:25.417Z,999.73
2023-04-27T11:00:25.383Z,999.73
2023-04-27T11:05:25.287Z,999.75
2023-04-27T11:10:25.242Z,999.67
2023-04-27T11:15:25.195Z,999.71
2023-04-27T11:20:25.120Z,999.75
2023-04-27T11:25:25.088Z,999.67
2023-04-27T11:30:25.007Z,999.61
2023-04-27T11:35:25.107Z,999.57
2023-04-27T11:40:24.922Z,999.59
2023-04-27T11:45:24.889Z,999.54
2023-04-27T11:50:24.812Z,999.43
2023-04-27T11:55:24.777Z,999.43
2023-04-27T12:00:24.686Z,999.40
2023-04-27T12:05:24.736Z,999.29
2023-04-27T12:10:24.626Z,999.27
2023-04-27T12:15:24.570Z,999.30
2023-04-27T12:20:24.562Z,999.22
2023-04-27T12:25:24.454Z,999.11
2023-04-27T12:30:24.375Z,999.06
2023-04-27T12:35:24.348Z,999.05
2023-04-27T12:40:24.255Z,999.01
2023-04-27T12:45:24.245Z,999.00
2023-04-27T12:50:24.162Z,999.08
2023-04-27T12:55:32.875Z,999.10
2023-04-27T13:00:25.051Z,999.01
2023-04-27T13:05:24.020Z,998.94
2023-04-27T13:10:23.925Z,998.97
2023-04-27T13:15:23.913Z,998.92
2023-04-27T13:20:23.858Z,998.96
2023-04-27T13:25:23.802Z,998.96
2023-04-27T13:30:23.757Z,999.00
2023-04-27T13:35:23.708Z,998.86
2023-04-27T13:40:23.638Z,998.83
2023-04-27T13:45:23.569Z,998.80
2023-04-27T13:50:23.507Z,998.77
2023-04-27T13:55:23.487Z,998.75
2023-04-27T14:00:23.458Z,998.70
2023-04-27T14:05:23.380Z,998.67
2023-04-27T14:10:23.302Z,998.61
2023-04-27T14:15:23.275Z,998.52
2023-04-27T14:20:23.186Z,998.52
2023-04-27T14:25:23.140Z,998.50
2023-04-27T14:30:23.091Z,998.37
2023-04-27T14:35:23.038Z,998.42
2023-04-27T14:40:22.955Z,998.31
2023-04-27T14:45:24.233Z,998.26
2023-04-27T14:50:22.891Z,998.23
2023-04-27T14:55:22.822Z,998.11
2023-04-27T15:00:22.731Z,998.01
2023-04-27T15:05:22.673Z,997.96
2023-04-27T15:10:22.625Z,997.96
2023-04-27T15:15:22.597Z,997.93
2023-04-27T15:20:22.513Z,997.97
2023-04-27T15:25:22.492Z,997.94
2023-04-27T15:30:22.434Z,998.04
2023-04-27T15:35:22.422Z,997.89
2023-04-27T15:40:22.440Z,997.78
2023-04-27T15:45:22.362Z,997.67
2023-04-27T15:50:22.213Z,997.66
2023-04-27T15:55:22.175Z,997.67
2023-04-27T16:00:22.165Z,997.65
2023-04-27T16:05:22.070Z,997.56
2023-04-27T16:10:21.991Z,997.50
2023-04-27T16:15:21.982Z,997.48
2023-04-27T16:20:28.931Z,997.48
2023-04-27T16:25:21.819Z,997.44
2023-04-27T16:30:21.793Z,997.25
2023-04-27T16:35:21.739Z,997.28
2023-04-27T16:40:21.655Z,997.25
2023-04-27T16:45:21.601Z,997.25
2023-04-27T16:50:21.539Z,997.21
2023-04-27T16:55:21.504Z,997.17
2023-04-27T17:00:21.448Z,997.06
2023-04-27T17:05:21.413Z,996.93
2023-04-27T17:10:21.329Z,996.89
2023-04-27T17:15:21.308Z,996.99
2023-04-27T17:20:21.208Z,996.88
2023-04-27T17:25:21.168Z,996.81
2023-04-27T17:30:21.104Z,996.75
2023-04-27T17:35:21.065Z,996.64
2023-04-27T17:40:21.137Z,996.61
2023-04-27T17:45:20.939Z,996.58
2023-04-27T17:50:20.889Z,996.58
2023-04-27T17:55:20.978Z,996.72
2023-04-27T18:00:20.775Z,996.68
2023-04-27T18:05:20.888Z,996.56
2023-04-27T18:10:20.697Z,996.51
2023-04-27T18:15:20.638Z,996.43
2023-04-27T18:20:23.257Z,996.52
2023-04-27T18:25:20.513Z,996.55
2023-04-27T18:30:20.441Z,996.49
2023-04-27T18:35:20.408Z,996.58
2023-04-27T18:40:20.324Z,996.47
2023-04-27T18:45:20.292Z,996.51
2023-04-27T18:50:20.242Z,996.42
2023-04-27T18:55:20.194Z,996.41
2023-04-27T19:00:20.150Z,996.34
2023-04-27T19:05:20.158Z,996.32
2023-04-27T19:10:19.999Z,996.29
2023-04-27T19:15:20.018Z,996.28
2023-04-27T19:20:19.894Z,996.31
2023-04-27T19:25:19.835Z,996.36
2023-04-27T19:30:19.785Z,996.41
2023-04-27T19:35:19.765Z,996.36
2023-04-27T19:40:19.667Z,996.46
2023-04-27T19:45:19.716Z,996.37
2023-04-27T19:50:19.584Z,996.38
2023-04-27T19:55:19.523Z,996.37
2023-04-27T20:00:19.452Z,996.43
2023-04-27T20:05:19.716Z,996.47
2023-04-27T20:10:19.333Z,996.38
2023-04-27T20:15:19.324Z,996.27
2023-04-27T20:20:19.247Z,996.16
2023-04-27T20:25:19.218Z,996.14
2023-04-27T20:30:19.129Z,996.12
2023-04-27T20:35:19.088Z,996.11
2023-04-27T20:40:19.044Z,996.02
2023-04-27T20:45:18.955Z,996.06
2023-04-27T20:50:18.932Z,996.01
2023-04-27T20:55:18.874Z,995.92
2023-04-27T21:00:18.808Z,995.91
2023-04-27T21:05:18.742Z,995.90
2023-04-27T21:10:18.700Z,995.77
2023-04-27T21:15:18.651Z,995.72
2023-04-27T21:20:18.584Z,995.70
2023-04-27T21:25:18.523Z,995.60
2023-04-27T21:30:18.465Z,995.41
2023-04-27T21:35:18.462Z,995.37
2023-04-27T21:40:18.360Z,995.33
2023-04-27T21:45:18.305Z,995.22
2023-04-27T21:50:18.248Z,995.13
2023-04-27T21:55:18.211Z,995.04
2023-04-27T22:00:18.161Z,994.98
2023-04-27T22:05:18.367Z,994.94
2023-04-27T22:10:18.020Z,994.83
2023-04-27T22:15:17.989Z,994.81
2023-04-27T22:20:24.950Z,994.74
2023-04-27T22:25:17.862Z,994.78
2023-04-27T22:30:17.823Z,994.75
2023-04-27T22:35:26.574Z,994.70
2023-04-27T22:40:18.716Z,994.64
2023-04-27T22:45:17.653Z,994.54
2023-04-27T22:50:17.596Z,994.50
2023-04-27T22:55:17.568Z,994.57
2023-04-27T23:00:17.508Z,994.61
2023-04-27T23:05:17.412Z,994.64
2023-04-27T23:10:17.365Z,994.60
2023-04-27T23:15:17.345Z,994.56
2023-04-27T23:20:27.956Z,994.52
2023-04-27T23:25:18.214Z,994.52
